Time;durP1;ratioP1;P1;durP2;ratioP2;P2;SDS_P1;SDS_P2;PMS_P1;PMS_P2;Temp;Humidity;BMP_temperature;BMP_pressure;BME280_temperature;BME280_humidity;BME280_pressure;Samples;Min_cycle;Max_cycle;Signal;HPM_P1;HPM_P2
2023/11/05 11:03:34;;;;;;;5.00;2.80;;;;;;;10.40;73.06;96413.15;102471;1290;635915;-76
2023/11/05 11:06:05;;;;;;;4.70;2.20;;;;;;;10.41;73.08;96405.16;104839;1270;94230;-80
2023/11/05 11:08:34;;;;;;;7.40;2.90;;;;;;;10.45;73.02;96398.41;104996;1269;94287;-73
2023/11/05 11:11:08;;;;;;;8.70;3.70;;;;;;;10.48;73.17;96389.77;104822;1264;107710;-74
2023/11/05 11:13:38;;;;;;;14.30;4.80;;;;;;;10.46;73.18;96377.44;104739;1269;94977;-75
2023/11/05 11:16:08;;;;;;;8.10;3.20;;;;;;;10.46;73.22;96365.88;105021;1261;239047;-76
2023/11/05 11:18:40;;;;;;;6.40;3.00;;;;;;;10.44;73.16;96354.06;105498;1260;94308;-75
2023/11/05 11:21:09;;;;;;;35.10;16.40;;;;;;;10.40;73.18;96352.56;105524;1260;95265;-75
2023/11/05 11:23:38;;;;;;;28.70;14.10;;;;;;;10.39;73.31;96346.63;105364;1256;107538;-77
2023/11/05 11:26:19;;;;;;;13.80;6.20;;;;;;;10.39;73.23;96349.89;105628;1257;94844;-73
2023/11/05 11:29:07;;;;;;;15.70;6.50;;;;;;;10.44;73.24;96346.42;101978;1298;636485;-76
2023/11/05 11:31:36;;;;;;;11.80;4.50;;;;;;;10.43;73.33;96345.70;104657;1272;94860;-75
2023/11/05 11:34:04;;;;;;;9.10;3.90;;;;;;;10.42;73.33;96335.27;104795;1273;94333;-74
2023/11/05 11:36:32;;;;;;;8.80;4.00;;;;;;;10.44;73.42;96329.65;104500;1272;107211;-74
2023/11/05 11:39:00;;;;;;;8.60;4.10;;;;;;;10.42;73.40;96325.82;104708;1267;94907;-75
2023/11/05 11:41:37;;;;;;;11.10;4.30;;;;;;;10.41;73.38;96325.48;104428;1273;105971;-76
2023/11/05 11:44:05;;;;;;;10.50;4.20;;;;;;;10.38;73.41;96312.73;104586;1272;94337;-75
2023/11/05 11:46:35;;;;;;;12.10;4.40;;;;;;;10.39;73.37;96300.95;105211;1263;94341;-75
2023/11/05 11:49:11;;;;;;;9.10;3.30;;;;;;;10.41;73.45;96300.17;104993;1266;107507;-76
2023/11/05 11:51:40;;;;;;;8.70;2.90;;;;;;;10.43;73.46;96298.73;104939;1266;95553;-75
2023/11/05 11:54:11;;;;;;;8.90;3.40;;;;;;;10.44;73.43;96294.90;104897;1263;107249;-77
2023/11/05 11:56:40;;;;;;;9.20;3.50;;;;;;;10.45;73.44;96296.48;105314;1269;94332;-74
2023/11/05 11:59:08;;;;;;;9.90;4.00;;;;;;;10.47;73.46;96290.46;105672;1258;95252;-73
2023/11/05 12:01:39;;;;;;;11.80;4.60;;;;;;;10.48;73.45;96282.02;105765;1259;109233;-76
2023/11/05 12:04:07;;;;;;;9.70;3.10;;;;;;;10.49;73.43;96277.98;108458;1256;95192;-73
2023/11/05 12:06:40;;;;;;;4.30;2.60;;;;;;;10.49;73.48;96265.59;108427;1257;107760;-77
2023/11/05 12:09:18;;;;;;;6.40;3.00;;;;;;;10.47;73.55;96258.98;105629;1259;95333;-73
2023/11/05 12:11:48;;;;;;;11.60;4.80;;;;;;;10.45;73.47;96251.23;105597;1254;96281;-78
2023/11/05 12:14:22;;;;;;;13.50;4.50;;;;;;;10.45;73.50;96233.35;105852;1257;108086;-74
2023/11/05 12:16:55;;;;;;;10.80;4.30;;;;;;;10.47;73.56;96225.83;105510;1259;95947;-74
2023/11/05 12:19:24;;;;;;;10.80;4.40;;;;;;;10.49;73.50;96226.17;106777;1256;107500;-75
2023/11/05 12:21:53;;;;;;;9.70;3.90;;;;;;;10.51;73.48;96225.48;108383;1257;93458;-75
2023/11/05 12:24:21;;;;;;;9.50;4.00;;;;;;;10.51;73.53;96229.20;105848;1258;95243;-76
2023/11/05 12:26:49;;;;;;;13.80;5.30;;;;;;;10.47;73.49;96233.10;105757;1259;108498;-75
2023/11/05 12:29:19;;;;;;;13.50;5.20;;;;;;;10.43;73.50;96218.12;105563;1259;96302;-75
2023/11/05 12:31:47;;;;;;;12.30;5.30;;;;;;;10.41;73.47;96213.92;105511;1254;107595;-78
2023/11/05 12:34:15;;;;;;;9.90;3.80;;;;;;;10.42;73.43;96215.05;105193;1258;95252;-74
2023/11/05 12:36:43;;;;;;;11.90;4.20;;;;;;;10.40;73.49;96218.94;105528;1258;95209;-74
2023/11/05 12:39:12;;;;;;;25.40;9.00;;;;;;;10.39;73.49;96225.63;105438;1259;109183;-75
2023/11/05 12:41:40;;;;;;;32.00;13.80;;;;;;;10.39;73.64;96232.85;105424;1259;95188;-76
2023/11/05 12:44:08;;;;;;;43.60;19.00;;;;;;;10.38;73.64;96231.23;105161;1254;107791;-74
2023/11/05 12:46:36;;;;;;;36.30;15.30;;;;;;;10.38;73.62;96230.14;105384;1259;95241;-74
2023/11/05 12:49:05;;;;;;;28.80;12.80;;;;;;;10.38;73.64;96233.90;105412;1259;96171;-76
2023/11/05 12:51:33;;;;;;;26.50;11.20;;;;;;;10.36;73.61;96227.94;105663;1256;108437;-74
2023/11/05 12:54:01;;;;;;;24.60;11.00;;;;;;;10.34;73.55;96232.56;105260;1259;95434;-75
2023/11/05 12:56:30;;;;;;;20.10;8.00;;;;;;;10.34;73.69;96233.65;105444;1259;107090;-75
2023/11/05 12:58:59;;;;;;;16.50;5.60;;;;;;;10.33;73.56;96232.16;105430;1260;95857;-79
2023/11/05 13:01:30;;;;;;;21.60;8.30;;;;;;;10.33;73.62;96220.18;105366;1259;95166;-76
2023/11/05 13:03:58;;;;;;;19.90;7.10;;;;;;;10.32;73.68;96206.64;105162;1259;109269;-73
2023/11/05 13:06:27;;;;;;;13.20;5.00;;;;;;;10.33;73.65;96233.46;105303;1260;95323;-75
2023/11/05 13:08:55;;;;;;;11.00;3.80;;;;;;;10.34;73.75;96250.69;105227;1260;109044;-76
2023/11/05 13:11:24;;;;;;;7.20;3.10;;;;;;;10.37;73.70;96252.13;105157;1260;95258;-80
2023/11/05 13:13:52;;;;;;;9.30;3.80;;;;;;;10.37;73.61;96251.08;105390;1256;95263;-75
2023/11/05 13:16:21;;;;;;;10.20;4.20;;;;;;;10.37;73.67;96243.77;105412;1259;107957;-76
2023/11/05 13:18:50;;;;;;;11.80;4.30;;;;;;;10.39;73.66;96232.20;105378;1262;95243;-73
2023/11/05 13:21:18;;;;;;;11.80;4.30;;;;;;;10.40;73.62;96235.13;105271;1260;107601;-75
2023/11/05 13:23:46;;;;;;;11.80;3.70;;;;;;;10.41;73.68;96233.61;105418;1255;96190;-80
2023/11/05 13:26:14;;;;;;;10.60;3.80;;;;;;;10.42;73.77;96231.34;105423;1259;95265;-74
2023/11/05 13:28:43;;;;;;;11.90;4.10;;;;;;;10.42;73.75;96224.48;105487;1254;108546;-76
2023/11/05 13:31:12;;;;;;;11.60;4.20;;;;;;;10.41;73.71;96222.78;105082;1259;95612;-76
2023/11/05 13:33:40;;;;;;;16.80;6.00;;;;;;;10.40;73.66;96224.41;105463;1259;107903;-75
2023/11/05 13:36:09;;;;;;;17.00;6.00;;;;;;;10.41;73.75;96225.07;105336;1259;95250;-75
2023/11/05 13:38:37;;;;;;;13.70;4.90;;;;;;;10.42;73.75;96230.45;105236;1259;95183;-74
2023/11/05 13:41:06;;;;;;;12.30;5.10;;;;;;;10.43;73.79;96230.59;105426;1268;109167;-74
2023/11/05 13:43:34;;;;;;;11.20;4.30;;;;;;;10.42;73.78;96234.20;105352;1259;95868;-75
2023/11/05 13:46:03;;;;;;;7.60;3.60;;;;;;;10.42;73.89;96235.96;105455;1259;107656;-74
2023/11/05 13:48:31;;;;;;;11.90;4.20;;;;;;;10.41;73.83;96241.38;105491;1259;95260;-76
2023/11/05 13:51:00;;;;;;;8.70;3.50;;;;;;;10.41;73.90;96248.66;105349;1259;95216;-76
2023/11/05 13:53:27;;;;;;;8.70;3.60;;;;;;;10.40;73.85;96249.98;105612;1259;108222;-75
2023/11/05 13:55:56;;;;;;;9.50;4.30;;;;;;;10.38;73.89;96257.31;105414;1254;95164;-75
2023/11/05 13:58:25;;;;;;;11.30;4.80;;;;;;;10.37;73.94;96261.70;105361;1276;107721;-74
2023/11/05 14:00:55;;;;;;;36.20;15.40;;;;;;;10.38;74.02;96262.66;105752;1260;95899;-73
2023/11/05 14:03:23;;;;;;;54.40;23.10;;;;;;;10.38;74.01;96264.20;105300;1267;95055;-73
2023/11/05 14:05:51;;;;;;;49.80;22.50;;;;;;;10.40;74.03;96265.77;105459;1260;107682;-78
2023/11/05 14:08:20;;;;;;;49.80;29.20;;;;;;;10.42;74.06;96267.48;105311;1256;95723;-74
2023/11/05 14:10:49;;;;;;;63.40;35.10;;;;;;;10.42;74.04;96264.98;105384;1260;105942;-74
2023/11/05 14:13:17;;;;;;;47.40;26.80;;;;;;;10.41;74.09;96264.80;105193;1260;95314;-74
2023/11/05 14:15:45;;;;;;;25.60;11.60;;;;;;;10.41;74.01;96267.78;105406;1258;95275;-74
2023/11/05 14:18:13;;;;;;;22.30;9.80;;;;;;;10.39;74.07;96273.52;105177;1267;108053;-74
2023/11/05 14:20:41;;;;;;;22.80;9.50;;;;;;;10.38;74.09;96278.42;105281;1259;95272;-75
2023/11/05 14:23:12;;;;;;;20.10;7.60;;;;;;;10.36;74.12;96276.56;105469;1259;107272;-74
2023/11/05 14:25:41;;;;;;;24.40;9.90;;;;;;;10.34;74.08;96277.02;105350;1267;95269;-74
2023/11/05 14:28:10;;;;;;;36.90;15.00;;;;;;;10.34;74.13;96277.09;105471;1259;95312;-74
2023/11/05 14:30:38;;;;;;;26.30;10.60;;;;;;;10.32;74.10;96280.67;105559;1259;108329;-75
2023/11/05 14:33:06;;;;;;;32.30;13.30;;;;;;;10.30;74.28;96282.64;105586;1254;96257;-75
2023/11/05 14:35:34;;;;;;;20.20;7.60;;;;;;;10.30;74.22;96277.03;105408;1258;107605;-73
2023/11/05 14:38:02;;;;;;;16.30;6.30;;;;;;;10.30;74.18;96276.70;105237;1260;96063;-76
2023/11/05 14:40:31;;;;;;;14.50;5.30;;;;;;;10.27;74.23;96276.61;105474;1255;96051;-74
2023/11/05 14:43:02;;;;;;;13.30;5.70;;;;;;;10.26;74.30;96281.48;105439;1260;110004;-74
2023/11/05 14:45:30;;;;;;;18.30;7.90;;;;;;;10.26;74.22;96282.77;105383;1259;96095;-75
2023/11/05 14:48:01;;;;;;;19.00;8.40;;;;;;;10.25;74.29;96286.06;105371;1260;107630;-74
2023/11/05 14:50:30;;;;;;;26.10;12.90;;;;;;;10.25;74.36;96292.14;105375;1267;95252;-74
2023/11/05 14:52:59;;;;;;;29.50;14.90;;;;;;;10.24;74.48;96294.83;105479;1260;96171;-75
2023/11/05 14:55:28;;;;;;;26.90;13.80;;;;;;;10.25;74.44;96298.64;105550;1257;107904;-73
2023/11/05 14:57:56;;;;;;;26.30;13.40;;;;;;;10.24;74.45;96296.09;105485;1260;95450;-75
2023/11/05 15:00:24;;;;;;;24.20;11.90;;;;;;;10.21;74.52;96294.13;105380;1261;106653;-73
2023/11/05 15:02:52;;;;;;;28.00;14.80;;;;;;;10.22;74.50;96293.29;107854;1257;95157;-75
2023/11/05 15:05:21;;;;;;;20.20;9.50;;;;;;;10.24;74.54;96293.07;107954;1258;95240;-74
2023/11/05 15:07:50;;;;;;;17.50;6.90;;;;;;;10.24;74.58;96294.10;105442;1260;108604;-75
2023/11/05 15:10:19;;;;;;;16.70;6.40;;;;;;;10.24;74.54;96295.53;106346;1259;96242;-75
2023/11/05 15:12:47;;;;;;;17.10;6.90;;;;;;;10.23;74.49;96293.02;105432;1260;107588;-75
2023/11/05 15:15:15;;;;;;;19.30;7.20;;;;;;;10.21;74.48;96296.95;106694;1255;95226;-74
2023/11/05 15:17:43;;;;;;;18.50;7.60;;;;;;;10.20;74.64;96302.36;106920;1259;95197;-73
